createdAt,value
2022-11-21T00:01:15.583Z,24.07
2022-11-21T00:03:43.896Z,24.43
2022-11-21T00:06:12.267Z,27.47
2022-11-21T00:08:40.605Z,23.53
2022-11-21T00:11:08.924Z,26.87
2022-11-21T00:13:38.562Z,26.30
2022-11-21T00:16:07.142Z,22.37
2022-11-21T00:18:35.521Z,21.03
2022-11-21T00:21:07.606Z,23.83
2022-11-21T00:23:36.682Z,20.87
2022-11-21T00:26:07.940Z,20.07
2022-11-21T00:28:36.297Z,19.00
2022-11-21T00:31:06.026Z,21.10
2022-11-21T00:33:34.286Z,19.80
2022-11-21T00:36:07.211Z,19.47
2022-11-21T00:38:35.566Z,18.73
2022-11-21T00:41:03.879Z,17.47
2022-11-21T00:43:32.157Z,15.87
2022-11-21T00:46:02.551Z,14.00
2022-11-21T00:48:32.285Z,14.27
2022-11-21T00:51:01.492Z,17.27
2022-11-21T00:53:29.825Z,18.20
2022-11-21T00:55:58.369Z,18.03
2022-11-21T00:58:26.670Z,15.10
2022-11-21T01:00:55.026Z,14.67
2022-11-21T01:03:23.314Z,17.57
2022-11-21T01:05:53.018Z,15.40
2022-11-21T01:08:21.389Z,16.73
2022-11-21T01:10:49.681Z,12.77
2022-11-21T01:13:17.953Z,11.23
2022-11-21T01:15:46.410Z,11.23
2022-11-21T01:18:14.690Z,13.73
2022-11-21T01:20:43.123Z,11.13
2022-11-21T01:23:12.800Z,10.70
2022-11-21T01:25:41.074Z,11.37
2022-11-21T01:28:09.350Z,11.13
2022-11-21T01:30:37.693Z,9.93
2022-11-21T01:33:05.984Z,8.53
2022-11-21T01:35:34.254Z,8.63
2022-11-21T01:38:02.569Z,8.93
2022-11-21T01:40:32.230Z,10.73
2022-11-21T01:43:01.319Z,6.80
2022-11-21T01:45:48.408Z,8.20
2022-11-21T01:48:16.703Z,7.77
2022-11-21T01:50:45.026Z,9.73
2022-11-21T01:53:13.364Z,8.73
2022-11-21T01:55:43.209Z,12.43
2022-11-21T01:58:11.535Z,7.50
2022-11-21T02:00:40.524Z,9.37
2022-11-21T02:03:09.334Z,7.10
2022-11-21T02:05:37.708Z,7.53
2022-11-21T02:08:06.555Z,5.40
2022-11-21T02:10:34.907Z,6.20
2022-11-21T02:13:04.544Z,7.77
2022-11-21T02:15:32.834Z,5.70
2022-11-21T02:18:01.106Z,7.23
2022-11-21T02:20:30.132Z,8.57
2022-11-21T02:23:00.574Z,6.93
2022-11-21T02:25:30.449Z,7.23
2022-11-21T02:27:59.606Z,5.70
2022-11-21T02:30:28.690Z,5.37
2022-11-21T02:32:57.254Z,5.63
2022-11-21T02:35:25.558Z,5.00
2022-11-21T02:37:55.182Z,5.83
2022-11-21T02:40:25.491Z,4.97
2022-11-21T02:42:59.125Z,6.07
2022-11-21T02:45:28.801Z,5.43
2022-11-21T02:48:03.672Z,4.03
2022-11-21T02:50:32.989Z,4.63
2022-11-21T02:53:01.230Z,4.53
2022-11-21T02:55:29.466Z,2.87
2022-11-21T02:58:03.393Z,5.23
2022-11-21T03:00:33.370Z,2.63
2022-11-21T03:03:01.685Z,4.53
2022-11-21T03:05:30.158Z,3.80
2022-11-21T03:07:58.501Z,2.70
2022-11-21T03:10:26.811Z,3.47
2022-11-21T03:13:01.208Z,4.60
2022-11-21T03:15:31.620Z,2.00
2022-11-21T03:18:01.161Z,3.47
2022-11-21T03:20:29.449Z,2.83
2022-11-21T03:22:57.737Z,3.43
2022-11-21T03:25:26.028Z,3.97
2022-11-21T03:27:54.345Z,4.07
2022-11-21T03:30:22.756Z,2.53
2022-11-21T03:32:52.435Z,3.23
2022-11-21T03:35:20.716Z,3.17
2022-11-21T03:37:49.173Z,3.73
2022-11-21T03:40:17.457Z,2.80
2022-11-21T03:42:45.948Z,3.03
2022-11-21T03:45:14.289Z,1.93
2022-11-21T03:47:42.580Z,2.80
2022-11-21T03:50:15.127Z,2.43
2022-11-21T03:52:43.495Z,3.73
2022-11-21T03:55:11.786Z,2.57
2022-11-21T03:57:40.891Z,2.50
2022-11-21T04:00:09.835Z,3.90
2022-11-21T04:02:38.133Z,2.07
2022-11-21T04:05:06.780Z,2.93
2022-11-21T04:07:36.532Z,1.70
2022-11-21T04:10:04.948Z,2.10
2022-11-21T04:12:33.227Z,1.40
2022-11-21T04:15:01.474Z,2.77
2022-11-21T04:17:29.744Z,1.60
2022-11-21T04:19:58.078Z,3.07
2022-11-21T04:22:26.378Z,2.00
2022-11-21T04:24:55.997Z,3.27
2022-11-21T04:27:24.259Z,2.00
2022-11-21T04:29:52.582Z,1.40
2022-11-21T04:32:20.874Z,1.07
2022-11-21T04:34:49.253Z,2.27
2022-11-21T04:37:17.639Z,1.70
2022-11-21T04:39:45.972Z,1.90
2022-11-21T04:42:15.634Z,3.70
2022-11-21T04:44:43.917Z,2.17
2022-11-21T04:47:12.189Z,1.10
2022-11-21T04:49:40.557Z,2.23
2022-11-21T04:52:08.868Z,1.37
2022-11-21T04:54:37.173Z,1.80
2022-11-21T04:57:05.719Z,1.43
2022-11-21T04:59:35.413Z,1.90
2022-11-21T05:02:04.403Z,1.47
2022-11-21T05:04:32.798Z,2.77
2022-11-21T05:07:01.132Z,1.70
2022-11-21T05:09:29.479Z,1.63
2022-11-21T05:12:26.777Z,2.00
2022-11-21T05:14:56.426Z,4.53
2022-11-21T05:17:24.661Z,1.43
2022-11-21T05:19:52.995Z,2.77
2022-11-21T05:22:21.308Z,1.50
2022-11-21T05:24:49.748Z,1.10
2022-11-21T05:27:18.121Z,1.53
2022-11-21T05:29:46.411Z,2.03
2022-11-21T05:32:16.057Z,2.03
2022-11-21T05:34:44.449Z,2.13
2022-11-21T05:37:12.751Z,1.70
2022-11-21T05:39:41.011Z,1.57
2022-11-21T05:42:09.412Z,1.30
2022-11-21T05:44:36.713Z,1.13
2022-11-21T05:47:05.025Z,1.13
2022-11-21T05:49:34.702Z,1.43
2022-11-21T05:52:02.975Z,1.67
2022-11-21T05:54:31.334Z,1.37
2022-11-21T05:56:59.614Z,1.27
2022-11-21T05:59:27.858Z,1.80
2022-11-21T06:02:13.685Z,1.57
2022-11-21T06:04:43.333Z,1.23
2022-11-21T06:07:11.753Z,1.70
2022-11-21T06:09:40.149Z,1.27
2022-11-21T06:12:08.489Z,1.47
2022-11-21T06:14:36.797Z,1.10
2022-11-21T06:17:05.270Z,1.10
2022-11-21T06:19:33.541Z,1.33
2022-11-21T06:22:03.234Z,1.57
2022-11-21T06:24:31.676Z,1.03
2022-11-21T06:27:00.283Z,1.33
2022-11-21T06:29:28.607Z,2.07
2022-11-21T06:31:57.022Z,2.30
2022-11-21T06:34:27.573Z,1.10
2022-11-21T06:36:56.068Z,1.17
2022-11-21T06:39:25.728Z,1.47
2022-11-21T06:41:53.992Z,2.83
2022-11-21T06:44:22.242Z,1.53
2022-11-21T06:46:51.630Z,1.00
2022-11-21T06:49:20.171Z,0.97
2022-11-21T06:51:48.677Z,1.00
2022-11-21T06:54:17.335Z,1.07
2022-11-21T06:56:47.136Z,1.43
2022-11-21T06:59:15.446Z,1.10
2022-11-21T07:01:43.859Z,1.77
2022-11-21T07:04:12.603Z,2.07
2022-11-21T07:06:40.871Z,0.80
2022-11-21T07:12:19.574Z,1.83
2022-11-21T07:14:46.955Z,2.17
2022-11-21T07:17:15.331Z,1.00
2022-11-21T07:19:43.654Z,1.00
2022-11-21T07:22:11.965Z,1.10
2022-11-21T07:24:40.250Z,1.57
2022-11-21T07:27:09.910Z,1.60
2022-11-21T07:29:38.289Z,1.00
2022-11-21T07:32:06.628Z,1.10
2022-11-21T07:34:35.329Z,2.97
2022-11-21T07:37:05.375Z,2.00
2022-11-21T07:39:33.818Z,1.67
2022-11-21T07:42:02.167Z,2.37
2022-11-21T07:44:31.883Z,1.30
2022-11-21T07:47:00.163Z,1.53
2022-11-21T07:49:28.692Z,2.67
2022-11-21T07:51:57.192Z,1.90
2022-11-21T07:54:25.491Z,1.43
2022-11-21T07:56:53.903Z,0.60
2022-11-21T07:59:22.202Z,0.90
2022-11-21T08:01:52.461Z,0.93
2022-11-21T08:04:20.976Z,0.77
2022-11-21T08:06:49.241Z,1.00
2022-11-21T08:09:17.524Z,1.80
2022-11-21T08:11:45.859Z,1.40
2022-11-21T08:14:14.310Z,1.20
2022-11-21T08:16:42.608Z,1.10
2022-11-21T08:19:12.608Z,1.73
2022-11-21T08:21:40.903Z,1.57
2022-11-21T08:24:13.596Z,0.90
2022-11-21T08:26:41.965Z,1.43
2022-11-21T08:29:11.263Z,0.90
2022-11-21T08:31:39.754Z,1.27
2022-11-21T08:34:13.019Z,1.43
2022-11-21T08:36:43.990Z,1.10
2022-11-21T08:39:12.314Z,2.10
2022-11-21T08:41:58.558Z,0.70
2022-11-21T08:44:28.120Z,3.30
2022-11-21T08:46:56.592Z,1.90
2022-11-21T08:49:24.864Z,1.13
2022-11-21T08:51:54.586Z,1.00
2022-11-21T08:54:23.747Z,1.03
2022-11-21T08:56:52.154Z,1.33
2022-11-21T08:59:20.429Z,0.90
2022-11-21T09:01:48.900Z,0.50
2022-11-21T09:04:17.222Z,0.90
2022-11-21T09:06:46.606Z,0.73
2022-11-21T09:09:20.699Z,1.20
2022-11-21T09:11:52.214Z,1.80
2022-11-21T09:14:38.170Z,1.50
2022-11-21T09:17:23.990Z,0.77
2022-11-21T09:19:52.463Z,2.20
2022-11-21T09:22:20.744Z,0.60
2022-11-21T09:24:50.425Z,0.40
2022-11-21T09:27:18.737Z,1.30
2022-11-21T09:29:52.444Z,1.60
2022-11-21T09:32:22.588Z,0.93
2022-11-21T09:34:50.947Z,0.77
2022-11-21T09:37:19.235Z,1.07
2022-11-21T09:39:48.946Z,0.67
2022-11-21T09:42:27.931Z,0.50
2022-11-21T09:44:59.926Z,0.60
2022-11-21T09:47:28.816Z,0.43
2022-11-21T09:49:58.838Z,1.53
2022-11-21T09:52:28.447Z,0.57
2022-11-21T09:54:58.001Z,1.10
2022-11-21T09:57:32.145Z,0.50
2022-11-21T10:00:03.575Z,1.07
2022-11-21T10:02:31.921Z,0.70
2022-11-21T10:05:00.932Z,1.97
2022-11-21T10:07:29.897Z,1.53
2022-11-21T10:10:06.260Z,1.10
2022-11-21T10:12:38.346Z,0.67
2022-11-21T10:15:10.079Z,0.50
2022-11-21T10:17:41.715Z,0.40
2022-11-21T10:20:18.036Z,0.30
2022-11-21T10:22:54.749Z,0.70
2022-11-21T10:25:27.144Z,0.60
2022-11-21T10:27:57.738Z,1.03
2022-11-21T10:30:26.023Z,0.60
2022-11-21T10:32:55.532Z,0.93
2022-11-21T10:35:24.394Z,0.97
2022-11-21T10:37:53.586Z,2.50
2022-11-21T10:40:33.648Z,1.97
2022-11-21T10:43:26.399Z,0.67
2022-11-21T10:45:53.811Z,1.07
2022-11-21T10:48:22.124Z,0.63
2022-11-21T10:50:53.929Z,0.50
2022-11-21T10:53:40.178Z,0.40
2022-11-21T10:56:09.215Z,0.60
2022-11-21T10:58:43.512Z,0.83
2022-11-21T11:01:20.850Z,1.33
2022-11-21T11:04:06.919Z,0.60
2022-11-21T11:06:37.700Z,0.87
2022-11-21T11:09:07.142Z,0.50
2022-11-21T11:11:35.428Z,1.20
2022-11-21T11:14:05.985Z,0.53
2022-11-21T11:16:40.128Z,0.40
2022-11-21T11:19:17.643Z,0.40
2022-11-21T11:21:46.274Z,0.70
2022-11-21T11:24:22.210Z,1.13
2022-11-21T11:26:53.893Z,0.50
2022-11-21T11:29:24.272Z,0.60
2022-11-21T11:31:54.260Z,0.63
2022-11-21T11:34:22.556Z,0.67
2022-11-21T11:36:58.343Z,0.37
2022-11-21T11:39:29.684Z,0.80
2022-11-21T11:42:36.637Z,0.77
2022-11-21T11:45:27.755Z,1.00
2022-11-21T11:47:56.827Z,0.63
2022-11-21T11:50:25.951Z,0.70
2022-11-21T11:52:55.992Z,1.40
2022-11-21T11:55:25.906Z,0.53
2022-11-21T11:57:54.722Z,0.60
2022-11-21T12:00:34.542Z,1.00
2022-11-21T12:03:04.020Z,1.03
2022-11-21T12:05:32.479Z,0.80
2022-11-21T12:11:15.932Z,0.50
2022-11-21T12:13:44.660Z,1.00
2022-11-21T12:16:14.708Z,2.33
2022-11-21T12:18:47.158Z,0.50
2022-11-21T12:21:16.090Z,1.27
2022-11-21T12:23:47.277Z,0.50
2022-11-21T12:26:33.351Z,0.33
2022-11-21T12:29:08.125Z,2.53
2022-11-21T12:31:40.854Z,0.30
2022-11-21T12:34:12.265Z,0.53
2022-11-21T12:36:40.970Z,0.40
2022-11-21T12:39:12.945Z,0.40
2022-11-21T12:42:00.871Z,0.60
2022-11-21T12:44:33.866Z,0.60
2022-11-21T12:47:07.574Z,0.63
2022-11-21T12:49:55.018Z,1.90
2022-11-21T12:52:47.045Z,0.80
2022-11-21T12:55:22.306Z,2.43
2022-11-21T12:57:58.641Z,1.17
2022-11-21T13:00:27.320Z,0.47
2022-11-21T13:03:11.544Z,0.90
2022-11-21T13:05:41.343Z,0.30
2022-11-21T13:08:11.880Z,0.60
2022-11-21T13:10:40.161Z,0.40
2022-11-21T13:13:10.707Z,1.90
2022-11-21T13:15:40.821Z,0.73
2022-11-21T13:18:17.534Z,0.40
2022-11-21T13:20:48.016Z,0.90
2022-11-21T13:23:31.265Z,0.40
2022-11-21T13:25:59.715Z,1.10
2022-11-21T13:28:34.930Z,0.70
2022-11-21T13:31:03.929Z,0.60
2022-11-21T13:33:49.704Z,0.63
2022-11-21T13:36:33.121Z,2.10
2022-11-21T13:39:35.230Z,0.43
2022-11-21T13:42:25.012Z,0.40
2022-11-21T13:44:53.501Z,0.40
2022-11-21T13:47:45.621Z,3.53
2022-11-21T13:50:19.327Z,0.50
2022-11-21T13:52:48.594Z,0.67
2022-11-21T13:55:31.833Z,0.60
2022-11-21T13:58:03.165Z,0.70
2022-11-21T14:00:34.473Z,0.77
2022-11-21T14:03:17.643Z,0.83
2022-11-21T14:05:50.754Z,1.23
2022-11-21T14:08:20.191Z,0.70
2022-11-21T14:10:48.769Z,2.10
2022-11-21T14:13:19.997Z,1.13
2022-11-21T14:15:49.805Z,0.60
2022-11-21T14:18:22.573Z,1.03
2022-11-21T14:20:53.969Z,0.70
2022-11-21T14:23:22.650Z,0.47
2022-11-21T14:25:51.666Z,1.07
2022-11-21T14:28:23.118Z,0.50
2022-11-21T14:30:51.888Z,0.80
2022-11-21T14:33:23.986Z,0.50
2022-11-21T14:35:54.540Z,0.83
2022-11-21T14:38:23.318Z,0.37
2022-11-21T14:40:51.745Z,0.77
2022-11-21T14:43:30.064Z,0.47
2022-11-21T14:45:58.439Z,0.53
2022-11-21T14:48:29.932Z,0.40
2022-11-21T14:51:01.725Z,0.30
2022-11-21T14:53:30.334Z,0.67
2022-11-21T14:56:01.640Z,0.60
2022-11-21T14:58:30.310Z,0.73
2022-11-21T15:01:04.999Z,0.77
2022-11-21T15:03:33.425Z,0.50
2022-11-21T15:06:06.475Z,0.50
2022-11-21T15:09:52.778Z,0.50
2022-11-21T15:11:24.680Z,0.53
2022-11-21T15:14:15.081Z,0.60
2022-11-21T15:16:43.928Z,0.40
2022-11-21T15:19:12.366Z,1.00
2022-11-21T15:21:46.773Z,0.63
2022-11-21T15:24:18.764Z,0.40
2022-11-21T15:26:47.417Z,0.60
2022-11-21T15:29:20.979Z,1.60
2022-11-21T15:31:52.227Z,0.33
2022-11-21T15:34:36.656Z,0.50
2022-11-21T15:37:08.552Z,1.17
2022-11-21T15:39:37.932Z,0.87
2022-11-21T15:42:24.920Z,1.33
2022-11-21T15:44:59.946Z,0.80
2022-11-21T15:47:28.588Z,0.93
2022-11-21T15:49:56.959Z,0.40
2022-11-21T15:52:26.690Z,0.60
2022-11-21T15:54:54.949Z,1.47
2022-11-21T15:57:23.406Z,0.40
2022-11-21T15:59:53.236Z,1.00
2022-11-21T16:02:21.613Z,0.50
2022-11-21T16:04:49.870Z,0.77
2022-11-21T16:07:18.376Z,0.90
2022-11-21T16:09:48.091Z,0.97
2022-11-21T16:12:16.474Z,0.53
2022-11-21T16:14:44.995Z,0.57
2022-11-21T16:17:14.260Z,1.93
2022-11-21T16:19:42.577Z,1.20
2022-11-21T16:22:10.987Z,0.37
2022-11-21T16:24:39.262Z,0.50
2022-11-21T16:27:08.879Z,1.37
2022-11-21T16:29:37.314Z,0.40
2022-11-21T16:32:05.702Z,0.40
2022-11-21T16:34:34.038Z,3.90
2022-11-21T16:37:07.111Z,0.97
2022-11-21T16:39:36.142Z,0.93
2022-11-21T16:42:04.531Z,1.03
2022-11-21T16:44:34.262Z,0.60
2022-11-21T16:47:08.048Z,0.20
2022-11-21T16:49:42.884Z,0.40
2022-11-21T16:52:11.318Z,1.43
2022-11-21T16:54:39.655Z,0.97
2022-11-21T16:57:08.050Z,1.23
2022-11-21T16:59:37.721Z,2.00
2022-11-21T17:02:06.037Z,0.50
2022-11-21T17:04:34.797Z,1.33
2022-11-21T17:07:03.627Z,0.40
2022-11-21T17:09:32.025Z,1.07
2022-11-21T17:12:00.492Z,0.50
2022-11-21T17:14:29.222Z,1.80
2022-11-21T17:17:01.757Z,0.60
2022-11-21T17:19:30.018Z,0.60
2022-11-21T17:22:00.186Z,0.90
2022-11-21T17:24:28.748Z,1.43
2022-11-21T17:27:00.577Z,0.63
2022-11-21T17:29:28.850Z,1.80
2022-11-21T17:31:57.205Z,5.97
2022-11-21T17:34:32.833Z,1.63
2022-11-21T17:37:01.593Z,0.77
2022-11-21T17:39:30.520Z,0.70
2022-11-21T17:41:59.941Z,1.30
2022-11-21T17:44:28.545Z,0.93
2022-11-21T17:46:59.276Z,1.17
2022-11-21T17:49:30.338Z,1.77
2022-11-21T17:51:58.832Z,0.60
2022-11-21T17:54:27.611Z,0.30
2022-11-21T17:56:57.173Z,0.57
2022-11-21T17:59:27.582Z,0.57
2022-11-21T18:01:56.411Z,0.57
2022-11-21T18:04:24.935Z,1.07
2022-11-21T18:06:54.631Z,2.33
2022-11-21T18:09:22.949Z,2.00
2022-11-21T18:11:51.238Z,1.10
2022-11-21T18:14:19.753Z,0.50
2022-11-21T18:16:53.038Z,1.83
2022-11-21T18:19:22.194Z,0.73
2022-11-21T18:21:51.743Z,1.07
2022-11-21T18:24:21.392Z,0.70
2022-11-21T18:26:49.729Z,1.27
2022-11-21T18:29:35.796Z,1.17
2022-11-21T18:32:05.471Z,0.90
2022-11-21T18:34:33.817Z,0.83
2022-11-21T18:37:02.178Z,1.03
2022-11-21T18:39:32.474Z,1.57
2022-11-21T18:42:01.042Z,1.03
2022-11-21T18:44:29.377Z,1.63
2022-11-21T18:46:57.745Z,1.07
2022-11-21T18:49:26.310Z,2.93
2022-11-21T18:51:54.834Z,4.83
2022-11-21T18:54:23.162Z,2.60
2022-11-21T18:56:52.832Z,1.13
2022-11-21T18:59:21.092Z,0.90
2022-11-21T19:01:49.945Z,2.20
2022-11-21T19:04:18.339Z,1.20
2022-11-21T19:06:46.694Z,1.07
2022-11-21T19:09:15.224Z,1.67
2022-11-21T19:11:43.549Z,3.13
2022-11-21T19:14:13.381Z,1.50
2022-11-21T19:16:41.762Z,4.37
2022-11-21T19:21:58.910Z,1.83
2022-11-21T19:24:27.181Z,1.20
2022-11-21T19:26:55.544Z,1.60
2022-11-21T19:29:25.253Z,1.60
2022-11-21T19:31:53.617Z,5.40
2022-11-21T19:34:22.116Z,2.77
2022-11-21T19:36:50.488Z,6.27
2022-11-21T19:39:18.813Z,1.20
2022-11-21T19:41:47.176Z,1.90
2022-11-21T19:44:15.565Z,4.10
2022-11-21T19:46:45.272Z,2.07
2022-11-21T19:49:13.720Z,1.87
2022-11-21T19:51:42.495Z,2.60
2022-11-21T19:54:11.098Z,1.37
2022-11-21T19:56:39.560Z,2.30
2022-11-21T19:59:07.916Z,1.70
2022-11-21T20:01:36.422Z,1.57
2022-11-21T20:04:06.570Z,3.00
2022-11-21T20:06:35.400Z,1.10
2022-11-21T20:09:04.138Z,3.10
2022-11-21T20:11:33.942Z,2.07
2022-11-21T20:14:02.329Z,2.70
2022-11-21T20:16:31.114Z,2.77
2022-11-21T20:19:00.152Z,2.27
2022-11-21T20:21:32.584Z,1.07
2022-11-21T20:24:01.054Z,1.27
2022-11-21T20:26:29.352Z,1.10
2022-11-21T20:28:57.733Z,2.83
2022-11-21T20:31:27.203Z,2.10
2022-11-21T20:33:55.928Z,5.10
2022-11-21T20:36:25.288Z,2.90
2022-11-21T20:38:55.210Z,1.70
2022-11-21T20:41:24.450Z,1.37
2022-11-21T20:46:43.538Z,2.17
2022-11-21T20:49:12.642Z,0.80
2022-11-21T20:54:30.999Z,1.53
2022-11-21T20:56:59.458Z,2.33
2022-11-21T20:59:28.402Z,2.97
2022-11-21T21:01:57.041Z,1.73
2022-11-21T21:04:25.442Z,2.13
2022-11-21T21:06:53.867Z,1.53
2022-11-21T21:09:22.102Z,1.50
2022-11-21T21:11:53.284Z,1.73
2022-11-21T21:14:22.380Z,4.07
2022-11-21T21:16:50.688Z,2.60
2022-11-21T21:19:19.060Z,2.63
2022-11-21T21:21:47.404Z,2.67
2022-11-21T21:24:15.870Z,1.77
2022-11-21T21:26:44.590Z,1.70
2022-11-21T21:29:14.533Z,3.43
2022-11-21T21:31:48.549Z,2.00
2022-11-21T21:34:19.322Z,1.67
2022-11-21T21:36:48.020Z,2.17
2022-11-21T21:39:16.387Z,2.67
2022-11-21T21:41:46.965Z,1.63
2022-11-21T21:44:17.223Z,1.17
2022-11-21T21:46:45.739Z,2.20
2022-11-21T21:49:14.172Z,1.73
2022-11-21T21:51:42.523Z,1.43
2022-11-21T21:54:16.202Z,2.70
2022-11-21T21:56:45.650Z,2.60
2022-11-21T21:59:13.978Z,1.67
2022-11-21T22:01:44.025Z,2.40
2022-11-21T22:04:12.782Z,3.60
2022-11-21T22:06:41.079Z,2.30
2022-11-21T22:09:09.376Z,12.27
2022-11-21T22:11:38.144Z,17.70
2022-11-21T22:14:06.971Z,17.03
2022-11-21T22:16:35.369Z,12.10
2022-11-21T22:19:05.052Z,11.43
2022-11-21T22:21:33.840Z,8.53
2022-11-21T22:24:24.671Z,11.83
2022-11-21T22:26:50.720Z,8.23
2022-11-21T22:29:19.117Z,7.93
2022-11-21T22:31:47.431Z,9.20
2022-11-21T22:34:17.197Z,8.67
2022-11-21T22:36:46.818Z,10.93
2022-11-21T22:39:15.367Z,5.13
2022-11-21T22:41:43.674Z,8.83
2022-11-21T22:44:12.248Z,5.80
2022-11-21T22:46:40.522Z,7.20
2022-11-21T22:49:08.814Z,4.80
2022-11-21T22:51:38.641Z,12.20
2022-11-21T22:54:06.980Z,8.93
2022-11-21T22:56:35.263Z,6.10
2022-11-21T22:59:03.749Z,8.57
2022-11-21T23:01:32.086Z,8.67
2022-11-21T23:04:00.439Z,8.47
2022-11-21T23:06:29.269Z,8.40
2022-11-21T23:08:58.890Z,4.83
2022-11-21T23:11:28.064Z,5.17
2022-11-21T23:13:56.755Z,5.33
2022-11-21T23:16:25.064Z,10.07
2022-11-21T23:18:53.866Z,8.60
2022-11-21T23:21:22.274Z,6.20
2022-11-21T23:23:50.543Z,8.97
2022-11-21T23:26:20.404Z,9.47
2022-11-21T23:28:48.687Z,10.37
2022-11-21T23:31:17.141Z,8.07
2022-11-21T23:33:45.669Z,6.87
2022-11-21T23:36:14.149Z,7.70
2022-11-21T23:38:42.469Z,5.83
2022-11-21T23:41:10.781Z,6.90
2022-11-21T23:43:40.415Z,6.80
2022-11-21T23:46:08.720Z,9.37
2022-11-21T23:48:37.002Z,9.90
2022-11-21T23:51:05.301Z,6.27
2022-11-21T23:53:33.599Z,5.70
2022-11-21T23:56:01.892Z,6.33
2022-11-21T23:58:30.209Z,5.70
